sensor_id;sensor_type;location;lat;lon;timestamp;temperature;humidity
15749;DHT22;7976;52.526;13.326;2023-05-29T00:00:13;15.90;99.90
15749;DHT22;7976;52.526;13.326;2023-05-29T00:02:43;15.80;99.90
15749;DHT22;7976;52.526;13.326;2023-05-29T00:05:10;15.80;99.90
15749;DHT22;7976;52.526;13.326;2023-05-29T00:07:38;15.80;99.90
15749;DHT22;7976;52.526;13.326;2023-05-29T00:10:06;15.80;99.90
15749;DHT22;7976;52.526;13.326;2023-05-29T00:12:34;15.80;99.90
15749;DHT22;7976;52.526;13.326;2023-05-29T00:15:02;15.70;99.90
15749;DHT22;7976;52.526;13.326;2023-05-29T00:17:31;15.70;99.90
15749;DHT22;7976;52.526;13.326;2023-05-29T00:19:58;15.70;99.90
15749;DHT22;7976;52.526;13.326;2023-05-29T00:22:27;15.70;99.90
15749;DHT22;7976;52.526;13.326;2023-05-29T00:24:54;15.60;99.90
15749;DHT22;7976;52.526;13.326;2023-05-29T00:27:21;15.60;99.90
15749;DHT22;7976;52.526;13.326;2023-05-29T00:29:48;15.60;99.90
15749;DHT22;7976;52.526;13.326;2023-05-29T00:32:14;15.60;99.90
15749;DHT22;7976;52.526;13.326;2023-05-29T00:34:43;15.50;99.90
15749;DHT22;7976;52.526;13.326;2023-05-29T00:37:10;15.50;99.90
15749;DHT22;7976;52.526;13.326;2023-05-29T00:39:37;15.50;99.90
15749;DHT22;7976;52.526;13.326;2023-05-29T00:42:04;15.50;99.90
15749;DHT22;7976;52.526;13.326;2023-05-29T00:44:32;15.50;99.90
15749;DHT22;7976;52.526;13.326;2023-05-29T00:46:58;15.40;99.90
15749;DHT22;7976;52.526;13.326;2023-05-29T00:49:26;15.40;99.90
15749;DHT22;7976;52.526;13.326;2023-05-29T00:51:54;15.40;99.90
15749;DHT22;7976;52.526;13.326;2023-05-29T00:54:26;15.40;99.90
15749;DHT22;7976;52.526;13.326;2023-05-29T00:56:57;15.40;99.90
15749;DHT22;7976;52.526;13.326;2023-05-29T00:59:26;15.40;99.90
15749;DHT22;7976;52.526;13.326;2023-05-29T01:01:55;15.40;99.90
15749;DHT22;7976;52.526;13.326;2023-05-29T01:04:25;15.40;99.90
15749;DHT22;7976;52.526;13.326;2023-05-29T01:06:54;15.30;99.90
15749;DHT22;7976;52.526;13.326;2023-05-29T01:09:22;15.30;99.90
15749;DHT22;7976;52.526;13.326;2023-05-29T01:11:57;15.30;99.90
15749;DHT22;7976;52.526;13.326;2023-05-29T01:14:36;15.30;99.90
15749;DHT22;7976;52.526;13.326;2023-05-29T01:17:17;15.30;99.90
15749;DHT22;7976;52.526;13.326;2023-05-29T01:20:02;15.30;99.90
15749;DHT22;7976;52.526;13.326;2023-05-29T01:22:46;15.20;99.90
15749;DHT22;7976;52.526;13.326;2023-05-29T01:25:33;15.20;99.90
15749;DHT22;7976;52.526;13.326;2023-05-29T01:28:16;15.20;99.90
15749;DHT22;7976;52.526;13.326;2023-05-29T01:30:49;15.20;99.90
15749;DHT22;7976;52.526;13.326;2023-05-29T01:33:17;15.20;99.90
15749;DHT22;7976;52.526;13.326;2023-05-29T01:35:44;15.20;99.90
15749;DHT22;7976;52.526;13.326;2023-05-29T01:38:11;15.10;99.90
15749;DHT22;7976;52.526;13.326;2023-05-29T01:40:38;15.10;99.90
15749;DHT22;7976;52.526;13.326;2023-05-29T01:43:06;15.10;99.90
15749;DHT22;7976;52.526;13.326;2023-05-29T01:45:36;15.00;99.90
15749;DHT22;7976;52.526;13.326;2023-05-29T01:48:04;15.00;99.90
15749;DHT22;7976;52.526;13.326;2023-05-29T01:50:34;14.90;99.90
15749;DHT22;7976;52.526;13.326;2023-05-29T01:53:01;14.90;99.90
15749;DHT22;7976;52.526;13.326;2023-05-29T01:55:28;14.80;99.90
15749;DHT22;7976;52.526;13.326;2023-05-29T01:57:55;14.80;99.90
15749;DHT22;7976;52.526;13.326;2023-05-29T02:00:23;14.80;99.90
15749;DHT22;7976;52.526;13.326;2023-05-29T02:02:52;14.70;99.90
15749;DHT22;7976;52.526;13.326;2023-05-29T02:05:19;14.70;99.90
15749;DHT22;7976;52.526;13.326;2023-05-29T02:07:47;14.70;99.90
15749;DHT22;7976;52.526;13.326;2023-05-29T02:10:14;14.70;99.90
15749;DHT22;7976;52.526;13.326;2023-05-29T02:12:41;14.60;99.90
15749;DHT22;7976;52.526;13.326;2023-05-29T02:15:09;14.60;99.90
15749;DHT22;7976;52.526;13.326;2023-05-29T02:17:36;14.60;99.90
15749;DHT22;7976;52.526;13.326;2023-05-29T02:20:05;14.60;99.90
15749;DHT22;7976;52.526;13.326;2023-05-29T02:22:33;14.50;99.90
15749;DHT22;7976;52.526;13.326;2023-05-29T02:25:00;14.50;99.90
15749;DHT22;7976;52.526;13.326;2023-05-29T02:27:27;14.50;99.90
15749;DHT22;7976;52.526;13.326;2023-05-29T02:29:53;14.50;99.90
15749;DHT22;7976;52.526;13.326;2023-05-29T02:32:20;14.40;99.90
15749;DHT22;7976;52.526;13.326;2023-05-29T02:34:47;14.50;99.90
15749;DHT22;7976;52.526;13.326;2023-05-29T02:37:16;14.40;99.90
15749;DHT22;7976;52.526;13.326;2023-05-29T02:39:43;14.40;99.90
15749;DHT22;7976;52.526;13.326;2023-05-29T02:42:10;14.40;99.90
15749;DHT22;7976;52.526;13.326;2023-05-29T02:44:37;14.40;99.90
15749;DHT22;7976;52.526;13.326;2023-05-29T02:47:04;14.40;99.90
15749;DHT22;7976;52.526;13.326;2023-05-29T02:49:31;14.30;99.90
15749;DHT22;7976;52.526;13.326;2023-05-29T02:51:58;14.30;99.90
15749;DHT22;7976;52.526;13.326;2023-05-29T02:54:26;14.30;99.90
15749;DHT22;7976;52.526;13.326;2023-05-29T02:56:53;14.20;99.90
15749;DHT22;7976;52.526;13.326;2023-05-29T02:59:20;14.20;99.90
15749;DHT22;7976;52.526;13.326;2023-05-29T03:01:47;14.10;99.90
15749;DHT22;7976;52.526;13.326;2023-05-29T03:04:14;14.10;99.90
15749;DHT22;7976;52.526;13.326;2023-05-29T03:06:43;14.10;99.90
15749;DHT22;7976;52.526;13.326;2023-05-29T03:09:10;14.10;99.90
15749;DHT22;7976;52.526;13.326;2023-05-29T03:11:39;14.10;99.90
15749;DHT22;7976;52.526;13.326;2023-05-29T03:14:06;14.10;99.90
15749;DHT22;7976;52.526;13.326;2023-05-29T03:16:33;14.10;99.90
15749;DHT22;7976;52.526;13.326;2023-05-29T03:19:01;14.10;99.90
15749;DHT22;7976;52.526;13.326;2023-05-29T03:21:28;14.00;99.90
15749;DHT22;7976;52.526;13.326;2023-05-29T03:23:56;13.90;99.90
15749;DHT22;7976;52.526;13.326;2023-05-29T03:26:23;13.90;99.90
15749;DHT22;7976;52.526;13.326;2023-05-29T03:28:53;13.90;99.90
15749;DHT22;7976;52.526;13.326;2023-05-29T03:31:19;13.80;99.90
15749;DHT22;7976;52.526;13.326;2023-05-29T03:33:47;13.80;99.90
15749;DHT22;7976;52.526;13.326;2023-05-29T03:36:19;13.80;99.90
15749;DHT22;7976;52.526;13.326;2023-05-29T03:38:46;13.80;99.90
15749;DHT22;7976;52.526;13.326;2023-05-29T03:41:13;13.80;99.90
15749;DHT22;7976;52.526;13.326;2023-05-29T03:43:40;13.90;99.90
15749;DHT22;7976;52.526;13.326;2023-05-29T03:46:08;13.90;99.90
15749;DHT22;7976;52.526;13.326;2023-05-29T03:48:36;13.90;99.90
15749;DHT22;7976;52.526;13.326;2023-05-29T03:51:03;13.90;99.90
15749;DHT22;7976;52.526;13.326;2023-05-29T03:53:35;14.00;99.90
15749;DHT22;7976;52.526;13.326;2023-05-29T03:56:01;14.00;99.90
15749;DHT22;7976;52.526;13.326;2023-05-29T03:58:28;14.00;99.90
15749;DHT22;7976;52.526;13.326;2023-05-29T04:00:56;14.10;99.90
15749;DHT22;7976;52.526;13.326;2023-05-29T04:03:25;14.10;99.90
15749;DHT22;7976;52.526;13.326;2023-05-29T04:05:54;14.10;99.90
15749;DHT22;7976;52.526;13.326;2023-05-29T04:08:22;14.10;99.90
15749;DHT22;7976;52.526;13.326;2023-05-29T04:10:48;14.10;99.90
15749;DHT22;7976;52.526;13.326;2023-05-29T04:13:20;14.20;99.90
15749;DHT22;7976;52.526;13.326;2023-05-29T04:15:47;14.20;99.90
15749;DHT22;7976;52.526;13.326;2023-05-29T04:18:15;14.30;99.90
15749;DHT22;7976;52.526;13.326;2023-05-29T04:20:43;14.40;99.90
15749;DHT22;7976;52.526;13.326;2023-05-29T04:23:12;14.40;99.90
15749;DHT22;7976;52.526;13.326;2023-05-29T04:25:39;14.50;99.90
15749;DHT22;7976;52.526;13.326;2023-05-29T04:28:06;14.60;99.90
15749;DHT22;7976;52.526;13.326;2023-05-29T04:30:32;14.60;99.90
15749;DHT22;7976;52.526;13.326;2023-05-29T04:33:01;14.70;99.90
15749;DHT22;7976;52.526;13.326;2023-05-29T04:35:29;14.70;99.90
15749;DHT22;7976;52.526;13.326;2023-05-29T04:38:00;14.80;99.90
15749;DHT22;7976;52.526;13.326;2023-05-29T04:40:30;14.80;99.90
15749;DHT22;7976;52.526;13.326;2023-05-29T04:42:58;14.80;99.90
15749;DHT22;7976;52.526;13.326;2023-05-29T04:45:30;14.80;99.90
15749;DHT22;7976;52.526;13.326;2023-05-29T04:47:57;14.80;99.90
15749;DHT22;7976;52.526;13.326;2023-05-29T04:50:25;14.80;99.90
15749;DHT22;7976;52.526;13.326;2023-05-29T04:52:56;14.80;99.90
15749;DHT22;7976;52.526;13.326;2023-05-29T04:55:24;14.80;99.90
15749;DHT22;7976;52.526;13.326;2023-05-29T04:57:51;14.80;99.90
15749;DHT22;7976;52.526;13.326;2023-05-29T05:00:19;14.90;99.90
15749;DHT22;7976;52.526;13.326;2023-05-29T05:02:46;14.90;99.90
15749;DHT22;7976;52.526;13.326;2023-05-29T05:05:14;15.00;99.90
15749;DHT22;7976;52.526;13.326;2023-05-29T05:07:41;15.00;99.90
15749;DHT22;7976;52.526;13.326;2023-05-29T05:10:08;15.00;99.90
15749;DHT22;7976;52.526;13.326;2023-05-29T05:12:37;15.10;99.90
15749;DHT22;7976;52.526;13.326;2023-05-29T05:15:05;15.10;99.90
15749;DHT22;7976;52.526;13.326;2023-05-29T05:17:34;15.20;99.90
15749;DHT22;7976;52.526;13.326;2023-05-29T05:20:00;15.30;99.90
15749;DHT22;7976;52.526;13.326;2023-05-29T05:22:29;15.30;99.90
15749;DHT22;7976;52.526;13.326;2023-05-29T05:24:56;15.40;99.90
15749;DHT22;7976;52.526;13.326;2023-05-29T05:27:24;15.50;99.90
15749;DHT22;7976;52.526;13.326;2023-05-29T05:29:54;15.50;99.90
15749;DHT22;7976;52.526;13.326;2023-05-29T05:32:20;15.60;99.90
15749;DHT22;7976;52.526;13.326;2023-05-29T05:34:54;15.60;99.90
15749;DHT22;7976;52.526;13.326;2023-05-29T05:37:22;15.70;99.90
15749;DHT22;7976;52.526;13.326;2023-05-29T05:39:50;15.80;99.90
15749;DHT22;7976;52.526;13.326;2023-05-29T05:42:19;15.80;99.90
15749;DHT22;7976;52.526;13.326;2023-05-29T05:44:55;15.90;99.90
15749;DHT22;7976;52.526;13.326;2023-05-29T05:47:22;15.90;99.90
15749;DHT22;7976;52.526;13.326;2023-05-29T05:49:49;15.90;99.90
15749;DHT22;7976;52.526;13.326;2023-05-29T05:52:16;15.90;99.90
15749;DHT22;7976;52.526;13.326;2023-05-29T05:54:43;16.00;99.90
15749;DHT22;7976;52.526;13.326;2023-05-29T05:57:12;16.10;99.90
15749;DHT22;7976;52.526;13.326;2023-05-29T05:59:39;16.10;99.90
15749;DHT22;7976;52.526;13.326;2023-05-29T06:02:07;16.20;99.90
15749;DHT22;7976;52.526;13.326;2023-05-29T06:04:34;16.20;99.90
15749;DHT22;7976;52.526;13.326;2023-05-29T06:07:02;16.20;99.90
15749;DHT22;7976;52.526;13.326;2023-05-29T06:09:29;16.30;99.90
15749;DHT22;7976;52.526;13.326;2023-05-29T06:11:55;16.50;99.90
15749;DHT22;7976;52.526;13.326;2023-05-29T06:14:23;16.60;99.90
15749;DHT22;7976;52.526;13.326;2023-05-29T06:16:50;16.80;99.90
15749;DHT22;7976;52.526;13.326;2023-05-29T06:19:18;16.90;99.90
15749;DHT22;7976;52.526;13.326;2023-05-29T06:21:59;17.00;99.90
15749;DHT22;7976;52.526;13.326;2023-05-29T06:24:28;17.10;99.90
15749;DHT22;7976;52.526;13.326;2023-05-29T06:26:56;17.10;99.90
15749;DHT22;7976;52.526;13.326;2023-05-29T06:29:23;17.10;99.90
15749;DHT22;7976;52.526;13.326;2023-05-29T06:31:50;17.10;99.90
15749;DHT22;7976;52.526;13.326;2023-05-29T06:34:20;17.20;99.90
15749;DHT22;7976;52.526;13.326;2023-05-29T06:36:47;17.20;99.90
15749;DHT22;7976;52.526;13.326;2023-05-29T06:39:14;17.30;99.90
15749;DHT22;7976;52.526;13.326;2023-05-29T06:41:41;17.50;99.90
15749;DHT22;7976;52.526;13.326;2023-05-29T06:44:08;17.60;99.90
15749;DHT22;7976;52.526;13.326;2023-05-29T06:46:35;17.70;99.90
15749;DHT22;7976;52.526;13.326;2023-05-29T06:49:02;17.80;99.90
15749;DHT22;7976;52.526;13.326;2023-05-29T06:51:30;17.80;99.90
15749;DHT22;7976;52.526;13.326;2023-05-29T06:54:17;17.90;99.90
15749;DHT22;7976;52.526;13.326;2023-05-29T06:56:44;18.00;99.90
15749;DHT22;7976;52.526;13.326;2023-05-29T06:59:10;18.10;99.90
15749;DHT22;7976;52.526;13.326;2023-05-29T07:01:37;18.20;99.90
15749;DHT22;7976;52.526;13.326;2023-05-29T07:04:04;18.30;99.90
15749;DHT22;7976;52.526;13.326;2023-05-29T07:06:33;18.30;99.90
15749;DHT22;7976;52.526;13.326;2023-05-29T07:09:01;18.50;99.90
15749;DHT22;7976;52.526;13.326;2023-05-29T07:11:28;18.70;99.90
15749;DHT22;7976;52.526;13.326;2023-05-29T07:13:55;18.90;99.40
15749;DHT22;7976;52.526;13.326;2023-05-29T07:16:22;19.20;99.20
15749;DHT22;7976;52.526;13.326;2023-05-29T07:18:49;19.40;98.60
15749;DHT22;7976;52.526;13.326;2023-05-29T07:21:17;19.30;98.60
15749;DHT22;7976;52.526;13.326;2023-05-29T07:23:47;19.20;98.70
15749;DHT22;7976;52.526;13.326;2023-05-29T07:26:14;19.30;98.60
15749;DHT22;7976;52.526;13.326;2023-05-29T07:28:41;19.40;98.40
15749;DHT22;7976;52.526;13.326;2023-05-29T07:31:08;19.50;98.40
15749;DHT22;7976;52.526;13.326;2023-05-29T07:33:35;19.60;98.00
15749;DHT22;7976;52.526;13.326;2023-05-29T07:36:02;19.60;97.80
15749;DHT22;7976;52.526;13.326;2023-05-29T07:38:29;19.70;97.70
15749;DHT22;7976;52.526;13.326;2023-05-29T07:40:58;19.80;97.20
15749;DHT22;7976;52.526;13.326;2023-05-29T07:43:30;19.80;97.00
15749;DHT22;7976;52.526;13.326;2023-05-29T07:46:00;20.00;96.90
15749;DHT22;7976;52.526;13.326;2023-05-29T07:48:28;20.20;96.70
15749;DHT22;7976;52.526;13.326;2023-05-29T07:50:56;20.40;96.50
15749;DHT22;7976;52.526;13.326;2023-05-29T07:53:24;20.50;96.30
15749;DHT22;7976;52.526;13.326;2023-05-29T07:55:51;20.40;96.30
15749;DHT22;7976;52.526;13.326;2023-05-29T07:58:19;20.30;96.20
15749;DHT22;7976;52.526;13.326;2023-05-29T08:00:46;20.30;96.20
15749;DHT22;7976;52.526;13.326;2023-05-29T08:03:14;20.50;95.80
15749;DHT22;7976;52.526;13.326;2023-05-29T08:05:50;20.50;95.40
15749;DHT22;7976;52.526;13.326;2023-05-29T08:08:19;20.40;95.40
15749;DHT22;7976;52.526;13.326;2023-05-29T08:10:46;20.30;95.50
15749;DHT22;7976;52.526;13.326;2023-05-29T08:13:12;20.30;95.50
15749;DHT22;7976;52.526;13.326;2023-05-29T08:15:42;20.10;95.50
15749;DHT22;7976;52.526;13.326;2023-05-29T08:18:09;20.00;95.70
15749;DHT22;7976;52.526;13.326;2023-05-29T08:20:36;20.00;95.80
15749;DHT22;7976;52.526;13.326;2023-05-29T08:23:02;20.10;95.80
15749;DHT22;7976;52.526;13.326;2023-05-29T08:25:29;20.30;95.70
15749;DHT22;7976;52.526;13.326;2023-05-29T08:27:57;20.50;95.40
15749;DHT22;7976;52.526;13.326;2023-05-29T08:30:24;20.60;95.10
15749;DHT22;7976;52.526;13.326;2023-05-29T08:32:53;20.70;95.00
15749;DHT22;7976;52.526;13.326;2023-05-29T08:35:20;20.80;94.70
15749;DHT22;7976;52.526;13.326;2023-05-29T08:37:47;20.90;94.70
15749;DHT22;7976;52.526;13.326;2023-05-29T08:40:14;21.00;94.70
15749;DHT22;7976;52.526;13.326;2023-05-29T08:42:46;21.20;94.50
15749;DHT22;7976;52.526;13.326;2023-05-29T08:45:14;21.20;94.10
15749;DHT22;7976;52.526;13.326;2023-05-29T08:47:41;21.20;94.30
15749;DHT22;7976;52.526;13.326;2023-05-29T08:50:09;21.40;94.30
15749;DHT22;7976;52.526;13.326;2023-05-29T08:52:38;21.40;94.20
15749;DHT22;7976;52.526;13.326;2023-05-29T08:55:07;21.20;94.10
15749;DHT22;7976;52.526;13.326;2023-05-29T08:57:36;21.00;94.30
15749;DHT22;7976;52.526;13.326;2023-05-29T09:00:05;20.90;94.50
15749;DHT22;7976;52.526;13.326;2023-05-29T09:02:37;21.00;94.50
15749;DHT22;7976;52.526;13.326;2023-05-29T09:05:05;21.10;94.10
15749;DHT22;7976;52.526;13.326;2023-05-29T09:07:34;21.20;93.90
15749;DHT22;7976;52.526;13.326;2023-05-29T09:10:04;21.30;94.00
15749;DHT22;7976;52.526;13.326;2023-05-29T09:12:33;21.30;93.80
15749;DHT22;7976;52.526;13.326;2023-05-29T09:15:00;21.40;93.70
15749;DHT22;7976;52.526;13.326;2023-05-29T09:17:30;21.40;93.60
15749;DHT22;7976;52.526;13.326;2023-05-29T09:19:59;21.50;93.70
15749;DHT22;7976;52.526;13.326;2023-05-29T09:22:26;21.60;93.50
15749;DHT22;7976;52.526;13.326;2023-05-29T09:24:54;21.70;93.40
15749;DHT22;7976;52.526;13.326;2023-05-29T09:27:21;21.80;93.40
15749;DHT22;7976;52.526;13.326;2023-05-29T09:29:48;21.90;93.40
15749;DHT22;7976;52.526;13.326;2023-05-29T09:32:16;22.10;93.20
15749;DHT22;7976;52.526;13.326;2023-05-29T09:34:44;22.20;92.90
15749;DHT22;7976;52.526;13.326;2023-05-29T09:37:12;22.00;93.00
15749;DHT22;7976;52.526;13.326;2023-05-29T09:39:46;22.00;93.10
15749;DHT22;7976;52.526;13.326;2023-05-29T09:42:15;22.10;92.80
15749;DHT22;7976;52.526;13.326;2023-05-29T09:44:44;22.00;92.30
15749;DHT22;7976;52.526;13.326;2023-05-29T09:47:14;21.80;92.50
15749;DHT22;7976;52.526;13.326;2023-05-29T09:49:43;21.80;92.60
15749;DHT22;7976;52.526;13.326;2023-05-29T09:52:12;21.70;92.70
15749;DHT22;7976;52.526;13.326;2023-05-29T09:54:42;21.70;92.70
15749;DHT22;7976;52.526;13.326;2023-05-29T09:57:12;21.70;92.70
15749;DHT22;7976;52.526;13.326;2023-05-29T09:59:43;21.90;92.70
15749;DHT22;7976;52.526;13.326;2023-05-29T10:02:14;22.00;92.60
15749;DHT22;7976;52.526;13.326;2023-05-29T10:04:41;22.00;92.50
15749;DHT22;7976;52.526;13.326;2023-05-29T10:07:15;22.10;92.40
15749;DHT22;7976;52.526;13.326;2023-05-29T10:09:53;22.40;92.30
15749;DHT22;7976;52.526;13.326;2023-05-29T10:12:27;22.70;92.00
15749;DHT22;7976;52.526;13.326;2023-05-29T10:14:59;22.90;91.70
15749;DHT22;7976;52.526;13.326;2023-05-29T10:17:34;23.00;91.60
15749;DHT22;7976;52.526;13.326;2023-05-29T10:20:05;23.00;91.10
15749;DHT22;7976;52.526;13.326;2023-05-29T10:22:40;23.10;90.90
15749;DHT22;7976;52.526;13.326;2023-05-29T10:25:13;23.00;90.40
15749;DHT22;7976;52.526;13.326;2023-05-29T10:27:43;23.20;90.40
15749;DHT22;7976;52.526;13.326;2023-05-29T10:30:20;23.30;90.30
15749;DHT22;7976;52.526;13.326;2023-05-29T10:33:03;23.30;89.70
15749;DHT22;7976;52.526;13.326;2023-05-29T10:35:44;23.10;88.10
15749;DHT22;7976;52.526;13.326;2023-05-29T10:38:14;23.00;88.60
15749;DHT22;7976;52.526;13.326;2023-05-29T10:40:44;22.80;88.70
15749;DHT22;7976;52.526;13.326;2023-05-29T10:43:32;22.70;88.60
15749;DHT22;7976;52.526;13.326;2023-05-29T10:46:01;22.80;88.70
15749;DHT22;7976;52.526;13.326;2023-05-29T10:48:42;22.90;85.10
15749;DHT22;7976;52.526;13.326;2023-05-29T10:51:24;22.90;85.90
15749;DHT22;7976;52.526;13.326;2023-05-29T10:53:52;23.00;86.80
15749;DHT22;7976;52.526;13.326;2023-05-29T10:56:27;23.10;87.60
15749;DHT22;7976;52.526;13.326;2023-05-29T10:58:57;23.30;87.80
15749;DHT22;7976;52.526;13.326;2023-05-29T11:01:29;23.30;87.90
15749;DHT22;7976;52.526;13.326;2023-05-29T11:04:25;23.10;88.40
15749;DHT22;7976;52.526;13.326;2023-05-29T11:06:53;22.80;88.90
15749;DHT22;7976;52.526;13.326;2023-05-29T11:09:28;22.60;89.40
15749;DHT22;7976;52.526;13.326;2023-05-29T11:12:14;22.50;89.40
15749;DHT22;7976;52.526;13.326;2023-05-29T11:14:55;22.30;88.90
15749;DHT22;7976;52.526;13.326;2023-05-29T11:17:31;22.40;87.70
15749;DHT22;7976;52.526;13.326;2023-05-29T11:20:02;22.50;87.30
15749;DHT22;7976;52.526;13.326;2023-05-29T11:22:46;22.70;87.20
15749;DHT22;7976;52.526;13.326;2023-05-29T11:25:22;22.70;87.10
15749;DHT22;7976;52.526;13.326;2023-05-29T11:27:49;22.50;87.40
15749;DHT22;7976;52.526;13.326;2023-05-29T11:30:17;22.40;87.90
15749;DHT22;7976;52.526;13.326;2023-05-29T11:32:46;22.30;88.20
15749;DHT22;7976;52.526;13.326;2023-05-29T11:35:15;22.20;88.40
15749;DHT22;7976;52.526;13.326;2023-05-29T11:37:44;22.20;88.70
15749;DHT22;7976;52.526;13.326;2023-05-29T11:40:13;22.20;88.40
15749;DHT22;7976;52.526;13.326;2023-05-29T11:42:42;22.30;88.30
15749;DHT22;7976;52.526;13.326;2023-05-29T11:45:13;22.40;87.80
15749;DHT22;7976;52.526;13.326;2023-05-29T11:47:56;22.60;87.80
15749;DHT22;7976;52.526;13.326;2023-05-29T11:50:26;22.80;87.30
15749;DHT22;7976;52.526;13.326;2023-05-29T11:52:55;23.00;86.90
15749;DHT22;7976;52.526;13.326;2023-05-29T11:55:23;22.90;86.30
15749;DHT22;7976;52.526;13.326;2023-05-29T11:57:56;22.70;87.10
15749;DHT22;7976;52.526;13.326;2023-05-29T12:00:24;22.60;87.90
15749;DHT22;7976;52.526;13.326;2023-05-29T12:02:53;22.50;88.40
15749;DHT22;7976;52.526;13.326;2023-05-29T12:05:20;22.40;88.40
15749;DHT22;7976;52.526;13.326;2023-05-29T12:07:48;22.40;88.30
15749;DHT22;7976;52.526;13.326;2023-05-29T12:10:17;22.40;88.40
15749;DHT22;7976;52.526;13.326;2023-05-29T12:12:51;22.60;88.10
15749;DHT22;7976;52.526;13.326;2023-05-29T12:15:19;22.90;87.00
15749;DHT22;7976;52.526;13.326;2023-05-29T12:17:48;23.20;86.90
15749;DHT22;7976;52.526;13.326;2023-05-29T12:20:17;23.30;87.00
15749;DHT22;7976;52.526;13.326;2023-05-29T12:22:46;23.30;86.80
15749;DHT22;7976;52.526;13.326;2023-05-29T12:25:14;23.00;87.10
15749;DHT22;7976;52.526;13.326;2023-05-29T12:27:43;22.80;86.90
15749;DHT22;7976;52.526;13.326;2023-05-29T12:30:13;22.50;86.90
15749;DHT22;7976;52.526;13.326;2023-05-29T12:32:47;22.40;86.70
15749;DHT22;7976;52.526;13.326;2023-05-29T12:35:18;22.50;86.10
15749;DHT22;7976;52.526;13.326;2023-05-29T12:37:47;22.60;85.30
15749;DHT22;7976;52.526;13.326;2023-05-29T12:40:17;22.70;85.10
15749;DHT22;7976;52.526;13.326;2023-05-29T12:42:46;22.80;84.30
15749;DHT22;7976;52.526;13.326;2023-05-29T12:45:14;22.70;84.70
15749;DHT22;7976;52.526;13.326;2023-05-29T12:47:51;22.60;84.60
15749;DHT22;7976;52.526;13.326;2023-05-29T12:50:25;22.40;84.80
15749;DHT22;7976;52.526;13.326;2023-05-29T12:52:57;22.30;85.20
15749;DHT22;7976;52.526;13.326;2023-05-29T12:55:26;22.40;85.30
15749;DHT22;7976;52.526;13.326;2023-05-29T12:57:54;22.50;84.20
15749;DHT22;7976;52.526;13.326;2023-05-29T13:00:22;22.60;84.30
15749;DHT22;7976;52.526;13.326;2023-05-29T13:02:50;22.70;84.50
15749;DHT22;7976;52.526;13.326;2023-05-29T13:05:18;22.90;84.50
15749;DHT22;7976;52.526;13.326;2023-05-29T13:07:50;23.10;84.30
15749;DHT22;7976;52.526;13.326;2023-05-29T13:10:17;23.30;83.90
15749;DHT22;7976;52.526;13.326;2023-05-29T13:12:44;23.50;83.60
15749;DHT22;7976;52.526;13.326;2023-05-29T13:15:13;23.60;83.00
15749;DHT22;7976;52.526;13.326;2023-05-29T13:17:41;23.80;82.60
15749;DHT22;7976;52.526;13.326;2023-05-29T13:20:10;23.90;82.60
15749;DHT22;7976;52.526;13.326;2023-05-29T13:22:39;24.00;81.90
15749;DHT22;7976;52.526;13.326;2023-05-29T13:25:10;23.90;81.90
15749;DHT22;7976;52.526;13.326;2023-05-29T13:27:39;23.90;81.80
15749;DHT22;7976;52.526;13.326;2023-05-29T13:30:08;23.90;81.90
15749;DHT22;7976;52.526;13.326;2023-05-29T13:32:36;23.80;82.30
15749;DHT22;7976;52.526;13.326;2023-05-29T13:35:04;23.80;82.40
15749;DHT22;7976;52.526;13.326;2023-05-29T13:37:31;23.60;82.10
15749;DHT22;7976;52.526;13.326;2023-05-29T13:39:58;23.40;82.40
15749;DHT22;7976;52.526;13.326;2023-05-29T13:42:26;23.10;82.90
15749;DHT22;7976;52.526;13.326;2023-05-29T13:44:53;22.90;83.30
15749;DHT22;7976;52.526;13.326;2023-05-29T13:47:20;22.80;83.70
15749;DHT22;7976;52.526;13.326;2023-05-29T13:49:47;22.70;83.40
15749;DHT22;7976;52.526;13.326;2023-05-29T13:52:14;22.80;83.50
15749;DHT22;7976;52.526;13.326;2023-05-29T13:54:41;23.10;83.80
15749;DHT22;7976;52.526;13.326;2023-05-29T13:57:08;23.30;83.60
15749;DHT22;7976;52.526;13.326;2023-05-29T13:59:36;23.30;83.80
15749;DHT22;7976;52.526;13.326;2023-05-29T14:02:04;23.40;84.00
15749;DHT22;7976;52.526;13.326;2023-05-29T14:04:32;23.40;84.10
15749;DHT22;7976;52.526;13.326;2023-05-29T14:06:59;23.60;84.00
15749;DHT22;7976;52.526;13.326;2023-05-29T14:09:26;23.60;83.00
15749;DHT22;7976;52.526;13.326;2023-05-29T14:11:54;23.50;82.90
15749;DHT22;7976;52.526;13.326;2023-05-29T14:14:21;23.50;82.90
15749;DHT22;7976;52.526;13.326;2023-05-29T14:16:50;23.60;83.00
15749;DHT22;7976;52.526;13.326;2023-05-29T14:19:17;23.60;82.80
15749;DHT22;7976;52.526;13.326;2023-05-29T14:21:44;23.70;82.50
15749;DHT22;7976;52.526;13.326;2023-05-29T14:24:11;23.70;82.10
15749;DHT22;7976;52.526;13.326;2023-05-29T14:26:41;23.90;82.10
15749;DHT22;7976;52.526;13.326;2023-05-29T14:29:10;24.00;81.70
15749;DHT22;7976;52.526;13.326;2023-05-29T14:31:37;24.00;81.30
15749;DHT22;7976;52.526;13.326;2023-05-29T14:34:06;24.10;81.20
15749;DHT22;7976;52.526;13.326;2023-05-29T14:36:32;24.10;80.90
15749;DHT22;7976;52.526;13.326;2023-05-29T14:39:01;24.10;80.70
15749;DHT22;7976;52.526;13.326;2023-05-29T14:41:27;24.20;80.60
15749;DHT22;7976;52.526;13.326;2023-05-29T14:43:54;24.20;80.40
15749;DHT22;7976;52.526;13.326;2023-05-29T14:46:23;24.10;80.50
15749;DHT22;7976;52.526;13.326;2023-05-29T14:48:51;24.00;80.50
15749;DHT22;7976;52.526;13.326;2023-05-29T14:51:21;24.00;80.60
15749;DHT22;7976;52.526;13.326;2023-05-29T14:53:49;24.00;80.80
15749;DHT22;7976;52.526;13.326;2023-05-29T14:56:16;23.80;80.50
15749;DHT22;7976;52.526;13.326;2023-05-29T14:58:44;23.70;80.70
15749;DHT22;7976;52.526;13.326;2023-05-29T15:01:13;23.60;80.70
15749;DHT22;7976;52.526;13.326;2023-05-29T15:03:40;23.60;80.90
15749;DHT22;7976;52.526;13.326;2023-05-29T15:06:09;23.50;80.10
15749;DHT22;7976;52.526;13.326;2023-05-29T15:08:38;23.30;80.00
15749;DHT22;7976;52.526;13.326;2023-05-29T15:11:05;23.20;80.20
15749;DHT22;7976;52.526;13.326;2023-05-29T15:13:33;23.20;80.20
15749;DHT22;7976;52.526;13.326;2023-05-29T15:16:00;23.10;80.10
15749;DHT22;7976;52.526;13.326;2023-05-29T15:18:28;22.90;80.60
15749;DHT22;7976;52.526;13.326;2023-05-29T15:20:55;22.90;80.80
15749;DHT22;7976;52.526;13.326;2023-05-29T15:23:24;22.90;81.10
15749;DHT22;7976;52.526;13.326;2023-05-29T15:25:53;22.90;81.00
15749;DHT22;7976;52.526;13.326;2023-05-29T15:28:20;22.90;81.10
15749;DHT22;7976;52.526;13.326;2023-05-29T15:30:47;23.10;81.30
15749;DHT22;7976;52.526;13.326;2023-05-29T15:33:14;23.10;81.30
15749;DHT22;7976;52.526;13.326;2023-05-29T15:35:41;23.10;81.40
15749;DHT22;7976;52.526;13.326;2023-05-29T15:38:08;23.10;81.60
15749;DHT22;7976;52.526;13.326;2023-05-29T15:40:38;23.00;81.50